Language: 


Des rapports , des résumés tant et plus, au choix de chacun....


Données statistiques de la station
Quotidien Rapport Janvier 5, 2017 Unités:  Métrique    Anglais   les deux
« Précédent Jour
Suivant Jour »
Quotidien Hebdomadaire Mensuel Annuel Actuel
  Haut: Bas: Moyen:
Température: 7.7 °C -1.9 °C 3.1 °C
Pt de rosée: 4.3 °C -3.1 °C 1.6 °C
Humidité: 98 % 75 % 91 %
Vitesse du vent: 29.4 km/h 0.0 km/h 4.5 km/h
Rafales: 29.4 km/h - -
Vent:- - SSW
Pression: 1037.1 hPa 1023.9 hPa -
Précipitation: 0.0 mm    
Historical Graphs
 
 
Données statistiques pour Janvier 5, 2017
Heure Température Point de rosée Pression Vent Vitesse du vent Refales Humidité Pluie (taux horaire)
00:09 2.7 °C 2.2 °C 1024.9 hPa NNE 1.4 km/h 8.7 km/h 96 % 0.0 mm
00:19 3.1 °C 2.6 °C 1024.9 hPa WNW 1.8 km/h 9.0 km/h 97 % 0.0 mm
00:29 3.1 °C 2.7 °C 1024.9 hPa WNW 2.6 km/h 10.5 km/h 97 % 0.0 mm
00:39 3.1 °C 2.7 °C 1024.9 hPa WNW 5.8 km/h 9.7 km/h 97 % 0.0 mm
00:49 3.2 °C 2.8 °C 1024.9 hPa NNW 4.7 km/h 10.5 km/h 97 % 0.0 mm
00:59 3.3 °C 3.1 °C 1023.9 hPa NNW 2.1 km/h 9.7 km/h 98 % 0.0 mm
01:09 3.3 °C 2.9 °C 1024.9 hPa NNW 11.9 km/h 13.7 km/h 97 % 0.0 mm
01:19 3.4 °C 3.0 °C 1024.9 hPa North 4.7 km/h 12.2 km/h 97 % 0.0 mm
01:29 3.4 °C 3.0 °C 1024.9 hPa NNE 3.2 km/h 15.4 km/h 97 % 0.0 mm
01:39 3.3 °C 2.9 °C 1024.9 hPa WNW 3.2 km/h 20.1 km/h 97 % 0.0 mm
01:49 3.4 °C 3.0 °C 1024.9 hPa WNW 6.9 km/h 12.6 km/h 97 % 0.0 mm
01:59 3.6 °C 3.1 °C 1026.0 hPa North 6.4 km/h 12.2 km/h 97 % 0.0 mm
02:09 3.6 °C 3.1 °C 1026.0 hPa NNW 4.7 km/h 6.4 km/h 97 % 0.0 mm
02:19 3.3 °C 2.9 °C 1026.0 hPa NNW 3.2 km/h 5.8 km/h 97 % 0.0 mm
02:29 3.3 °C 2.9 °C 1026.0 hPa NNW 6.1 km/h 6.1 km/h 97 % 0.0 mm
02:39 3.3 °C 2.9 °C 1026.0 hPa NNW 6.1 km/h 6.1 km/h 97 % 0.0 mm
02:49 3.3 °C 2.9 °C 1026.0 hPa NNW 9.3 km/h 11.1 km/h 97 % 0.0 mm
02:59 3.6 °C 3.2 °C 1026.0 hPa NNE 6.4 km/h 16.6 km/h 97 % 0.0 mm
03:09 3.6 °C 3.2 °C 1026.0 hPa NNE 4.7 km/h 8.7 km/h 97 % 0.0 mm
03:19 3.8 °C 3.4 °C 1026.0 hPa North 10.1 km/h 10.1 km/h 97 % 0.0 mm
03:29 3.9 °C 3.3 °C 1026.0 hPa NNW 8.7 km/h 14.0 km/h 96 % 0.0 mm
03:39 3.7 °C 3.2 °C 1026.0 hPa Calm   8.7 km/h 96 % 0.0 mm
03:49 3.6 °C 2.9 °C 1026.0 hPa Calm   7.6 km/h 96 % 0.0 mm
03:59 3.3 °C 2.8 °C 1026.0 hPa WNW 3.2 km/h 9.3 km/h 96 % 0.0 mm
04:09 3.2 °C 2.7 °C 1026.0 hPa NNW 6.9 km/h 6.9 km/h 96 % 0.0 mm
04:19 3.3 °C 2.9 °C 1026.0 hPa WNW 4.0 km/h 9.0 km/h 97 % 0.0 mm
04:29 3.3 °C 2.9 °C 1027.0 hPa NNE 3.5 km/h 9.7 km/h 97 % 0.0 mm
04:39 3.2 °C 2.7 °C 1027.0 hPa North 2.1 km/h 6.1 km/h 96 % 0.0 mm
04:49 3.2 °C 2.7 °C 1027.0 hPa NNE 5.5 km/h 8.7 km/h 96 % 0.0 mm
04:59 3.1 °C 2.6 °C 1027.0 hPa WNW 4.0 km/h 10.1 km/h 96 % 0.0 mm
05:09 3.1 °C 2.6 °C 1027.0 hPa WNW 6.4 km/h 10.5 km/h 96 % 0.0 mm
05:19 3.2 °C 2.8 °C 1027.0 hPa WNW 1.8 km/h 9.3 km/h 97 % 0.0 mm
05:29 3.2 °C 2.8 °C 1027.0 hPa WNW 4.7 km/h 10.5 km/h 97 % 0.0 mm
05:39 3.2 °C 2.8 °C 1027.0 hPa NNE 4.0 km/h 9.7 km/h 97 % 0.0 mm
05:49 3.1 °C 2.7 °C 1027.0 hPa WNW 1.8 km/h 8.7 km/h 97 % 0.0 mm
05:59 2.9 °C 2.4 °C 1027.0 hPa NNW 5.0 km/h 11.6 km/h 96 % 0.0 mm
06:09 3.1 °C 2.6 °C 1027.0 hPa NNW 5.0 km/h 10.5 km/h 97 % 0.0 mm
06:19 2.9 °C 2.5 °C 1027.0 hPa North 5.0 km/h 10.1 km/h 97 % 0.0 mm
06:29 2.9 °C 2.5 °C 1027.0 hPa North 9.0 km/h 9.0 km/h 97 % 0.0 mm
06:39 3.1 °C 2.6 °C 1027.0 hPa West 4.0 km/h 10.5 km/h 97 % 0.0 mm
06:49 3.1 °C 2.6 °C 1027.0 hPa WSW 5.0 km/h 9.7 km/h 97 % 0.0 mm
06:59 3.1 °C 2.4 °C 1027.0 hPa NW 6.1 km/h 10.1 km/h 96 % 0.0 mm
07:09 3.1 °C 2.4 °C 1028.0 hPa West 8.7 km/h 13.0 km/h 96 % 0.0 mm
07:19 3.1 °C 2.6 °C 1028.0 hPa NNW 4.7 km/h 13.0 km/h 96 % 0.0 mm
07:29 3.2 °C 2.7 °C 1028.0 hPa NNW 6.9 km/h 12.6 km/h 96 % 0.0 mm
07:39 3.1 °C 2.6 °C 1028.0 hPa West 1.8 km/h 7.6 km/h 96 % 0.0 mm
07:49 2.9 °C 2.4 °C 1028.0 hPa North 4.0 km/h 9.0 km/h 96 % 0.0 mm
07:59 2.8 °C 2.3 °C 1028.0 hPa WNW 6.4 km/h 8.7 km/h 96 % 0.0 mm
08:09 2.8 °C 2.3 °C 1028.0 hPa WNW 4.7 km/h 8.7 km/h 96 % 0.0 mm
08:19 2.7 °C 2.2 °C 1028.0 hPa NNW 4.3 km/h 9.0 km/h 96 % 0.0 mm
08:29 2.7 °C 2.1 °C 1030.0 hPa WNW 4.0 km/h 6.9 km/h 96 % 0.0 mm
08:39 2.7 °C 2.1 °C 1029.0 hPa North 3.5 km/h 8.7 km/h 96 % 0.0 mm
08:49 2.6 °C 2.0 °C 1029.0 hPa Calm   5.5 km/h 96 % 0.0 mm
08:59 2.7 °C 2.2 °C 1029.0 hPa WNW 4.7 km/h 9.7 km/h 97 % 0.0 mm
09:09 2.8 °C 2.4 °C 1028.0 hPa WNW 11.9 km/h 11.9 km/h 97 % 0.0 mm
09:19 2.9 °C 2.4 °C 1028.0 hPa NNE 4.3 km/h 14.0 km/h 96 % 0.0 mm
09:29 2.4 °C 1.7 °C 1030.0 hPa Calm   9.7 km/h 95 % 0.0 mm
09:39 2.3 °C 1.6 °C 1030.0 hPa NNE 4.3 km/h 6.4 km/h 95 % 0.0 mm
09:49 2.2 °C 1.4 °C 1030.0 hPa NNW 4.3 km/h 5.0 km/h 95 % 0.0 mm
09:59 2.6 °C 2.0 °C 1030.0 hPa NW 3.5 km/h 6.4 km/h 96 % 0.0 mm
10:09 2.9 °C 2.5 °C 1030.0 hPa NNW 6.9 km/h 9.7 km/h 97 % 0.0 mm
10:19 3.4 °C 3.0 °C 1030.0 hPa Calm   6.9 km/h 97 % 0.0 mm
10:29 3.7 °C 3.3 °C 1030.0 hPa North 5.5 km/h 8.7 km/h 97 % 0.0 mm
10:39 4.5 °C 3.9 °C 1031.0 hPa NNW 2.1 km/h 21.2 km/h 96 % 0.0 mm
10:49 4.8 °C 3.9 °C 1031.0 hPa NNW 6.9 km/h 19.5 km/h 94 % 0.0 mm
11:09 5.5 °C 4.3 °C 1031.0 hPa North 9.7 km/h 12.2 km/h 92 % 0.0 mm
11:19 5.8 °C 4.3 °C 1031.0 hPa NNE 12.6 km/h 12.6 km/h 90 % 0.0 mm
11:29 6.1 °C 4.2 °C 1031.0 hPa North 5.8 km/h 14.0 km/h 88 % 0.0 mm
11:39 6.3 °C 4.3 °C 1031.0 hPa NNE 4.3 km/h 11.9 km/h 87 % 0.0 mm
11:49 6.4 °C 4.2 °C 1031.0 hPa NNE 10.1 km/h 13.7 km/h 86 % 0.0 mm
11:59 6.4 °C 4.1 °C 1031.0 hPa NNW 6.9 km/h 10.5 km/h 85 % 0.0 mm
12:09 6.6 °C 4.1 °C 1031.0 hPa NNE 13.0 km/h 13.7 km/h 84 % 0.0 mm
12:19 6.7 °C 4.2 °C 1031.0 hPa ENE 9.0 km/h 13.0 km/h 84 % 0.0 mm
12:29 6.9 °C 4.1 °C 1031.0 hPa NNE 8.7 km/h 28.8 km/h 82 % 0.0 mm
12:39 6.9 °C 3.9 °C 1031.0 hPa North 5.8 km/h 12.6 km/h 81 % 0.0 mm
12:49 7.1 °C 3.8 °C 1031.0 hPa North 11.1 km/h 12.2 km/h 80 % 0.0 mm
12:59 7.2 °C 3.9 °C 1031.0 hPa NE 10.5 km/h 11.6 km/h 80 % 0.0 mm
13:09 7.2 °C 3.6 °C 1032.1 hPa NE 6.9 km/h 13.7 km/h 78 % 0.0 mm
13:19 7.3 °C 3.9 °C 1032.1 hPa NE 6.1 km/h 9.0 km/h 79 % 0.0 mm
13:29 7.4 °C 3.8 °C 1031.0 hPa North 8.7 km/h 11.6 km/h 78 % 0.0 mm
13:39 7.7 °C 4.1 °C 1031.0 hPa NNW 1.8 km/h 28.8 km/h 78 % 0.0 mm
13:49 7.7 °C 3.9 °C 1031.0 hPa NW 6.9 km/h 8.7 km/h 77 % 0.0 mm
14:09 7.3 °C 3.2 °C 1031.0 hPa NNW 5.0 km/h 8.7 km/h 75 % 0.0 mm
14:19 6.9 °C 2.8 °C 1031.0 hPa NNE 2.6 km/h 7.6 km/h 75 % 0.0 mm
14:29 6.7 °C 2.7 °C 1031.0 hPa NNE 1.4 km/h 4.7 km/h 76 % 0.0 mm
14:39 6.4 °C 2.9 °C 1031.0 hPa NE 2.6 km/h 4.7 km/h 78 % 0.0 mm
14:49 6.3 °C 2.7 °C 1031.0 hPa NNE 6.1 km/h 6.9 km/h 78 % 0.0 mm
14:59 6.1 °C 2.7 °C 1031.0 hPa ENE 4.3 km/h 8.7 km/h 79 % 0.0 mm
15:09 5.8 °C 2.2 °C 1031.0 hPa NE 6.4 km/h 7.6 km/h 78 % 0.0 mm
15:19 5.5 °C 2.1 °C 1031.0 hPa NE 5.5 km/h 6.4 km/h 79 % 0.0 mm
15:29 5.5 °C 2.5 °C 1032.1 hPa East 6.4 km/h 6.4 km/h 81 % 0.0 mm
15:39 5.6 °C 2.6 °C 1032.1 hPa Calm   6.9 km/h 81 % 0.0 mm
15:49 5.5 °C 2.7 °C 1032.1 hPa NE 5.0 km/h 5.5 km/h 82 % 0.0 mm
15:59 5.5 °C 2.7 °C 1033.1 hPa NE 6.9 km/h 6.9 km/h 82 % 0.0 mm
16:09 5.5 °C 2.7 °C 1032.1 hPa NE 4.0 km/h 6.9 km/h 82 % 0.0 mm
16:19 5.5 °C 2.7 °C 1032.1 hPa NE 6.1 km/h 7.2 km/h 82 % 0.0 mm
16:29 5.5 °C 2.7 °C 1033.1 hPa ENE 4.0 km/h 7.6 km/h 82 % 0.0 mm
16:39 5.5 °C 2.7 °C 1033.1 hPa ENE 4.3 km/h 5.0 km/h 82 % 0.0 mm
16:49 5.5 °C 2.7 °C 1033.1 hPa ENE 5.8 km/h 11.1 km/h 82 % 0.0 mm
16:59 5.5 °C 2.7 °C 1032.1 hPa ENE 6.1 km/h 6.9 km/h 82 % 0.0 mm
17:09 5.5 °C 2.7 °C 1032.1 hPa ENE 5.8 km/h 6.9 km/h 82 % 0.0 mm
17:19 5.5 °C 2.7 °C 1032.1 hPa East 5.5 km/h 6.1 km/h 82 % 0.0 mm
17:29 2.8 °C 0.6 °C 1033.1 hPa ENE 4.7 km/h 6.4 km/h 85 % 0.0 mm
17:39 2.6 °C 0.3 °C 1033.1 hPa ENE 5.0 km/h 6.9 km/h 85 % 0.0 mm
17:49 2.3 °C 0.0 °C 1033.1 hPa Calm   6.1 km/h 85 % 0.0 mm
17:59 2.2 °C 0.1 °C 1033.1 hPa NE 4.3 km/h 6.9 km/h 86 % 0.0 mm
18:09 2.1 °C 0.1 °C 1034.1 hPa ENE 5.8 km/h 6.9 km/h 87 % 0.0 mm
18:19 1.9 °C -0.1 °C 1034.1 hPa ENE 1.4 km/h 5.8 km/h 87 % 0.0 mm
18:29 1.8 °C -0.2 °C 1034.1 hPa ENE 29.4 km/h 29.4 km/h 87 % 0.0 mm
18:39 1.7 °C -0.3 °C 1034.1 hPa East 4.0 km/h 6.1 km/h 87 % 0.0 mm
18:49 1.4 °C -0.6 °C 1034.1 hPa Calm   4.3 km/h 87 % 0.0 mm
18:59 1.3 °C -0.7 °C 1034.1 hPa Calm   28.8 km/h 87 % 0.0 mm
19:09 1.0 °C -0.9 °C 1035.1 hPa Calm     87 % 0.0 mm
19:19 0.9 °C -0.9 °C 1035.1 hPa Calm   2.6 km/h 88 % 0.0 mm
19:29 0.7 °C -1.1 °C 1035.1 hPa Calm     88 % 0.0 mm
19:39 0.7 °C -1.1 °C 1034.1 hPa NNE 4.7 km/h 4.7 km/h 88 % 0.0 mm
19:49 0.3 °C -1.4 °C 1034.1 hPa Calm   4.7 km/h 88 % 0.0 mm
19:59 0.1 °C -1.5 °C 1035.1 hPa NNE 3.5 km/h 4.7 km/h 89 % 0.0 mm
20:09 0.1 °C -1.5 °C 1034.1 hPa North 4.7 km/h 4.7 km/h 89 % 0.0 mm
20:19 0.1 °C -1.5 °C 1034.1 hPa Calm   5.0 km/h 89 % 0.0 mm
20:29 0.1 °C -1.5 °C 1035.1 hPa Calm   2.6 km/h 89 % 0.0 mm
20:39 -0.5 °C -1.9 °C 1036.1 hPa Calm   3.5 km/h 90 % 0.0 mm
20:49 -0.7 °C -2.1 °C 1036.1 hPa Calm   4.0 km/h 90 % 0.0 mm
20:59 -0.7 °C -2.1 °C 1036.1 hPa Calm   5.0 km/h 90 % 0.0 mm
21:09 -0.7 °C -2.0 °C 1036.1 hPa NE 4.3 km/h 5.5 km/h 91 % 0.0 mm
21:19 -0.8 °C -1.9 °C 1036.1 hPa NE 3.5 km/h 5.0 km/h 92 % 0.0 mm
21:29 -1.0 °C -2.1 °C 1036.1 hPa Calm   4.0 km/h 92 % 0.0 mm
21:39 -1.0 °C -2.1 °C 1037.1 hPa NE 3.2 km/h 4.0 km/h 92 % 0.0 mm
21:49 -1.1 °C -2.2 °C 1037.1 hPa Calm   3.2 km/h 92 % 0.0 mm
21:59 -1.1 °C -2.1 °C 1037.1 hPa NE 2.1 km/h 4.3 km/h 93 % 0.0 mm
22:09 -1.2 °C -2.3 °C 1037.1 hPa NE 4.7 km/h 4.7 km/h 92 % 0.0 mm
22:19 -1.4 °C -2.5 °C 1037.1 hPa Calm   4.7 km/h 92 % 0.0 mm
22:29 -1.4 °C -2.7 °C 1037.1 hPa Calm   4.3 km/h 91 % 0.0 mm
22:39 -1.7 °C -2.9 °C 1037.1 hPa Calm     91 % 0.0 mm
22:49 -1.9 °C -3.1 °C 1037.1 hPa Calm     91 % 0.0 mm
22:59 -1.9 °C -3.1 °C 1037.1 hPa Calm   2.6 km/h 92 % 0.0 mm
23:09 -1.9 °C -3.0 °C 1037.1 hPa Calm     92 % 0.0 mm
23:19 -1.9 °C -3.0 °C 1037.1 hPa NE 4.0 km/h 4.0 km/h 92 % 0.0 mm
23:29 -1.9 °C -3.0 °C 1037.1 hPa NE 4.0 km/h 5.0 km/h 92 % 0.0 mm
23:39 -1.9 °C -2.8 °C 1037.1 hPa ENE 4.0 km/h 4.7 km/h 93 % 0.0 mm
23:49 -1.9 °C -2.8 °C 1037.1 hPa ENE 4.0 km/h 4.0 km/h 93 % 0.0 mm
23:59 -1.9 °C -2.8 °C 1037.1 hPa Calm   5.0 km/h 93 % 0.0 mm
Le Gheer Warneton
Courtoisie de Weather Underground - 1.5 mb

Mise a jour : 18/12/2017 17:39:11
Généré par Cumulus 1.9.4 (1099)